Time;durP1;ratioP1;P1;durP2;ratioP2;P2;SDS_P1;SDS_P2;PMS_P1;PMS_P2;Temp;Humidity;BMP_temperature;BMP_pressure;BME280_temperature;BME280_humidity;BME280_pressure;Samples;Min_cycle;Max_cycle;Signal;HPM_P1;HPM_P2
2022/08/01 00:01:52;;;;;;;5.90;2.80;;;;;;;22.04;51.81;98936.45;1774103;80;21001;-46
2022/08/01 00:04:19;;;;;;;6.58;3.27;;;;;;;22.03;51.90;98940.43;1774047;80;21076;-46
2022/08/01 00:06:45;;;;;;;5.95;2.98;;;;;;;22.00;51.94;98937.20;1774292;80;21558;-46
2022/08/01 00:09:12;;;;;;;8.55;3.08;;;;;;;21.99;51.94;98940.39;1774287;80;21256;-46
2022/08/01 00:11:39;;;;;;;9.58;3.58;;;;;;;21.96;52.00;98935.77;1774340;80;20941;-46
2022/08/01 00:14:09;;;;;;;7.25;3.25;;;;;;;21.95;52.46;98930.86;1774425;80;21017;-46
2022/08/01 00:16:37;;;;;;;5.30;3.10;;;;;;;21.94;52.63;98934.83;1774673;80;20953;-46
2022/08/01 00:19:04;;;;;;;4.45;2.65;;;;;;;21.91;52.89;98930.79;1774430;80;21049;-46
2022/08/01 00:21:31;;;;;;;6.35;3.17;;;;;;;21.89;53.06;98938.12;1774186;80;21314;-46
2022/08/01 00:23:59;;;;;;;5.62;3.05;;;;;;;21.88;52.91;98935.83;1774148;80;21378;-46
2022/08/01 00:26:26;;;;;;;7.10;3.05;;;;;;;21.85;52.90;98939.47;1774254;80;20969;-46
2022/08/01 00:28:53;;;;;;;4.97;3.10;;;;;;;21.82;52.99;98934.24;1774181;80;21571;-46
2022/08/01 00:31:20;;;;;;;5.40;3.00;;;;;;;21.82;52.82;98941.14;1774041;80;21476;-46
2022/08/01 00:33:47;;;;;;;4.95;2.98;;;;;;;21.80;52.96;98938.65;1774297;80;21246;-46
2022/08/01 00:36:14;;;;;;;8.78;3.17;;;;;;;21.76;53.12;98938.77;1774215;80;20974;-46
2022/08/01 00:38:41;;;;;;;6.60;3.30;;;;;;;21.75;53.27;98938.61;1774326;80;21522;-46
2022/08/01 00:41:08;;;;;;;5.15;3.45;;;;;;;21.72;53.20;98937.35;1774291;80;20997;-46
2022/08/01 00:43:35;;;;;;;7.35;3.30;;;;;;;21.69;53.13;98932.09;1774289;80;21077;-46
2022/08/01 00:46:03;;;;;;;4.90;3.00;;;;;;;21.67;53.47;98927.05;1774240;80;21203;-46
2022/08/01 00:48:29;;;;;;;9.38;3.10;;;;;;;21.65;53.33;98922.56;1774170;80;21024;-46
2022/08/01 00:50:57;;;;;;;5.42;2.80;;;;;;;21.62;53.38;98923.47;1774285;80;21005;-46
2022/08/01 00:53:25;;;;;;;3.58;2.83;;;;;;;21.60;53.35;98924.50;1774432;80;20986;-46
2022/08/01 00:55:52;;;;;;;5.53;2.95;;;;;;;21.58;53.42;98922.04;1774413;80;21484;-46
2022/08/01 00:58:18;;;;;;;5.08;3.08;;;;;;;21.55;53.51;98912.65;1774229;80;23122;-46
2022/08/01 01:00:46;;;;;;;5.55;3.08;;;;;;;21.52;53.62;98913.55;1774265;80;20981;-46
2022/08/01 01:03:13;;;;;;;7.78;3.20;;;;;;;21.49;53.65;98912.30;1774316;80;20957;-46
2022/08/01 01:06:11;;;;;;;7.72;2.80;;;;;;;21.45;53.76;98908.86;1774082;80;21513;-46
2022/08/01 01:08:53;;;;;;;4.83;2.70;;;;;;;21.42;53.86;98917.42;1774214;80;21040;-46
2022/08/01 01:11:25;;;;;;;7.15;3.40;;;;;;;21.37;53.91;98910.30;1774039;80;21150;-46
2022/08/01 01:14:04;;;;;;;5.62;3.20;;;;;;;21.34;53.85;98916.72;1774231;80;21059;-46
2022/08/01 01:16:32;;;;;;;8.35;2.98;;;;;;;21.32;54.09;98905.34;1774204;80;21500;-46
2022/08/01 01:19:02;;;;;;;7.75;3.35;;;;;;;21.29;53.96;98902.87;1774142;80;21123;-46
2022/08/01 01:21:58;;;;;;;4.72;2.70;;;;;;;21.27;53.94;98903.91;1781259;80;20993;-46
2022/08/01 01:24:33;;;;;;;8.08;3.05;;;;;;;21.26;54.02;98903.75;1782388;80;23157;-46
2022/08/01 01:27:12;;;;;;;6.95;3.05;;;;;;;21.23;54.01;98909.55;1726592;80;21020;-46
2022/08/01 01:29:48;;;;;;;5.97;3.10;;;;;;;21.21;54.03;98906.45;1782435;80;20965;-46
2022/08/01 01:32:36;;;;;;;4.95;2.90;;;;;;;21.20;54.15;98902.78;1782750;80;20952;-46
2022/08/01 01:35:08;;;;;;;7.92;2.90;;;;;;;21.17;54.18;98903.04;1781900;80;21416;-46
2022/08/01 01:37:34;;;;;;;5.25;2.75;;;;;;;21.14;54.18;98903.94;1782771;80;21183;-46
2022/08/01 01:40:02;;;;;;;5.92;2.83;;;;;;;21.13;54.26;98908.47;1782484;80;21509;-46
2022/08/01 01:42:30;;;;;;;8.78;3.08;;;;;;;21.11;54.28;98910.28;1782467;80;21004;-46
2022/08/01 01:44:57;;;;;;;5.25;2.70;;;;;;;21.12;54.35;98912.44;1782464;80;21527;-46
2022/08/01 01:47:24;;;;;;;5.17;2.80;;;;;;;21.11;54.41;98918.55;1782240;80;21464;-46
2022/08/01 01:49:51;;;;;;;5.20;3.00;;;;;;;21.10;54.46;98913.50;1782215;80;23123;-46
2022/08/01 01:52:19;;;;;;;4.33;3.12;;;;;;;21.10;54.49;98913.50;1782129;80;21521;-46
2022/08/01 01:54:50;;;;;;;7.10;2.70;;;;;;;21.09;54.58;98916.86;1782420;80;20936;-46
2022/08/01 01:57:17;;;;;;;6.62;2.98;;;;;;;21.10;54.53;98923.14;1782595;80;21028;-46
2022/08/01 01:59:45;;;;;;;5.33;3.08;;;;;;;21.10;54.80;98914.88;1782381;80;21056;-46
2022/08/01 02:02:12;;;;;;;6.25;3.25;;;;;;;21.10;54.77;98919.02;1782451;80;21244;-46
2022/08/01 02:04:44;;;;;;;5.80;2.85;;;;;;;21.08;54.89;98916.69;1782126;80;21509;-46
2022/08/01 02:07:15;;;;;;;7.58;2.80;;;;;;;21.08;54.89;98919.44;1782602;80;20933;-46
2022/08/01 02:09:42;;;;;;;6.35;2.90;;;;;;;21.06;54.70;98914.96;1782473;80;21052;-46
2022/08/01 02:12:13;;;;;;;4.95;2.98;;;;;;;21.05;54.66;98913.44;1782765;80;21092;-46
2022/08/01 02:14:40;;;;;;;9.88;2.80;;;;;;;21.04;54.81;98915.25;1782578;80;21888;-46
2022/08/01 02:17:07;;;;;;;7.40;3.08;;;;;;;21.02;54.58;98917.06;1782558;80;20960;-46
2022/08/01 02:19:35;;;;;;;8.43;3.30;;;;;;;21.02;54.73;98919.05;1782506;80;21029;-46
2022/08/01 02:22:08;;;;;;;3.80;2.80;;;;;;;20.99;54.68;98915.20;1774549;80;21006;-46
2022/08/01 02:24:46;;;;;;;7.33;3.00;;;;;;;20.99;54.71;98917.95;1773993;80;21069;-46
2022/08/01 02:27:17;;;;;;;6.70;3.12;;;;;;;20.95;54.82;98920.05;1774512;80;21047;-46
2022/08/01 02:29:58;;;;;;;7.97;3.17;;;;;;;20.90;54.87;98910.95;1774097;80;20934;-46
2022/08/01 02:32:46;;;;;;;7.12;2.85;;;;;;;20.89;54.91;98919.05;1774153;80;21041;-46
2022/08/01 02:35:26;;;;;;;7.05;2.80;;;;;;;20.86;54.87;98923.29;1774103;80;20934;-46
2022/08/01 02:37:53;;;;;;;4.90;2.80;;;;;;;20.80;55.06;98908.67;1754744;80;21527;-46
2022/08/01 02:40:21;;;;;;;5.15;2.98;;;;;;;20.79;55.08;98920.13;1773952;80;21349;-46
2022/08/01 02:42:50;;;;;;;3.95;2.83;;;;;;;20.76;55.17;98916.88;1774046;80;21024;-46
2022/08/01 02:45:19;;;;;;;4.33;2.80;;;;;;;20.75;55.16;98918.09;1774114;80;21080;-46
2022/08/01 02:47:46;;;;;;;4.17;2.72;;;;;;;20.74;55.14;98912.41;1774261;80;21084;-46
2022/08/01 02:50:13;;;;;;;6.35;3.25;;;;;;;20.74;55.17;98913.78;1774226;80;21080;-46
2022/08/01 02:52:40;;;;;;;4.33;2.62;;;;;;;20.73;55.29;98909.48;1774251;80;22187;-46
2022/08/01 02:55:08;;;;;;;3.85;2.87;;;;;;;20.73;55.39;98909.48;1774295;80;21008;-46
2022/08/01 02:57:37;;;;;;;4.90;2.83;;;;;;;20.73;55.26;98916.36;1774542;80;20941;-46
2022/08/01 03:00:06;;;;;;;5.65;2.67;;;;;;;20.72;55.27;98912.09;1752346;80;21555;-46
2022/08/01 03:02:34;;;;;;;5.15;3.15;;;;;;;20.72;55.33;98912.83;1774091;80;21016;-46
2022/08/01 03:05:02;;;;;;;4.50;2.50;;;;;;;20.73;55.30;98913.61;1774100;80;21079;-46
2022/08/01 03:07:29;;;;;;;5.45;2.85;;;;;;;20.73;55.33;98913.01;1773852;80;21531;-46
2022/08/01 03:09:57;;;;;;;6.53;2.85;;;;;;;20.73;55.41;98910.25;1774201;80;21629;-46
2022/08/01 03:12:27;;;;;;;6.95;2.70;;;;;;;20.74;55.42;98916.53;1774037;80;20922;-46
2022/08/01 03:14:55;;;;;;;5.95;2.67;;;;;;;20.74;55.38;98912.41;1774014;80;21052;-46
2022/08/01 03:17:24;;;;;;;4.00;2.67;;;;;;;20.75;55.46;98916.70;1774152;80;21060;-46
2022/08/01 03:19:52;;;;;;;4.73;2.70;;;;;;;20.77;55.47;98919.78;1774392;80;21001;-46
2022/08/01 03:22:21;;;;;;;6.08;2.90;;;;;;;20.78;55.46;98922.11;1781589;80;20937;-46
2022/08/01 03:24:51;;;;;;;5.92;2.77;;;;;;;20.80;55.41;98923.05;1782238;80;20933;-46
2022/08/01 03:27:22;;;;;;;6.33;3.00;;;;;;;20.81;55.35;98921.85;1782710;80;21570;-46
2022/08/01 03:29:49;;;;;;;10.13;3.15;;;;;;;20.85;55.40;98921.14;1782460;80;21124;-46
2022/08/01 03:32:17;;;;;;;5.05;2.90;;;;;;;20.86;55.36;98921.91;1782469;80;20933;-46
2022/08/01 03:34:45;;;;;;;6.35;3.15;;;;;;;20.86;55.40;98922.69;1782554;80;21491;-46
2022/08/01 03:37:26;;;;;;;5.95;3.25;;;;;;;20.85;55.54;98920.36;1782765;80;21464;-46
2022/08/01 03:40:00;;;;;;;6.72;3.72;;;;;;;20.86;55.50;98921.31;1782494;80;21017;-46
2022/08/01 03:42:41;;;;;;;6.25;3.60;;;;;;;20.86;55.63;98919.93;1781320;80;21214;-46
2022/08/01 03:45:10;;;;;;;4.97;3.52;;;;;;;20.86;55.61;98921.31;1782486;80;21008;-46
2022/08/01 03:47:37;;;;;;;6.80;3.60;;;;;;;20.86;55.60;98917.78;1782657;80;21543;-46
2022/08/01 03:50:06;;;;;;;7.53;3.83;;;;;;;20.86;55.63;98918.55;1782595;80;21456;-46
2022/08/01 03:52:33;;;;;;;7.37;3.70;;;;;;;20.87;55.67;98918.70;1782299;80;21041;-46
2022/08/01 03:55:06;;;;;;;5.45;3.70;;;;;;;20.88;55.60;98920.25;1782677;80;21459;-46
2022/08/01 03:57:33;;;;;;;6.25;3.50;;;;;;;20.91;55.69;98922.14;1782705;80;21028;-46
2022/08/01 04:00:00;;;;;;;5.65;3.58;;;;;;;20.93;55.85;98920.30;1751491;80;20902;-46
2022/08/01 04:02:27;;;;;;;5.53;3.55;;;;;;;20.95;55.93;98926.16;1743248;82;21069;-46
2022/08/01 04:04:55;;;;;;;5.40;3.20;;;;;;;21.01;55.82;98924.41;1743284;82;21029;-46
2022/08/01 04:07:32;;;;;;;8.40;4.12;;;;;;;21.05;55.73;98923.09;1743409;82;21475;-46
2022/08/01 04:10:00;;;;;;;5.83;3.87;;;;;;;21.09;55.70;98919.61;1743323;82;21475;-46
2022/08/01 04:12:27;;;;;;;7.35;3.60;;;;;;;21.15;55.63;98922.62;1743453;82;20998;-46
2022/08/01 04:14:54;;;;;;;4.97;3.33;;;;;;;21.21;55.56;98922.22;1743395;82;20933;-46
2022/08/01 04:17:20;;;;;;;5.75;3.15;;;;;;;21.27;55.46;98919.69;1743692;82;21621;-46
2022/08/01 04:19:48;;;;;;;5.97;3.30;;;;;;;21.34;55.40;98915.34;1743662;82;21575;-46
2022/08/01 04:22:15;;;;;;;7.80;3.83;;;;;;;21.39;55.33;98917.55;1747811;81;21004;-46
2022/08/01 04:24:48;;;;;;;4.95;3.80;;;;;;;21.43;55.23;98916.81;1749049;82;21030;-45
2022/08/01 04:27:17;;;;;;;5.62;3.90;;;;;;;21.47;54.95;98917.47;1749338;81;20957;-45
2022/08/01 04:29:44;;;;;;;5.50;3.35;;;;;;;21.52;54.96;98908.64;1749233;82;21005;-46
2022/08/01 04:32:12;;;;;;;7.50;3.30;;;;;;;21.57;55.02;98912.99;1721444;82;21223;-46
2022/08/01 04:34:40;;;;;;;4.87;3.30;;;;;;;21.60;54.86;98909.33;1748926;81;21579;-46
2022/08/01 04:37:10;;;;;;;6.17;3.17;;;;;;;21.68;54.48;98911.27;1749098;82;21033;-46
2022/08/01 04:39:37;;;;;;;4.95;3.05;;;;;;;21.73;54.46;98901.65;1748826;82;21549;-46
2022/08/01 04:42:04;;;;;;;8.40;3.12;;;;;;;21.77;54.26;98905.83;1749007;82;21061;-46
2022/08/01 04:44:32;;;;;;;4.62;2.62;;;;;;;21.80;53.67;98910.45;1749053;82;21086;-46
2022/08/01 04:47:01;;;;;;;4.12;2.87;;;;;;;21.84;53.55;98904.20;1748935;82;21587;-46
2022/08/01 04:49:28;;;;;;;9.23;2.77;;;;;;;21.90;53.36;98909.31;1749041;82;21025;-46
2022/08/01 04:51:57;;;;;;;5.67;2.70;;;;;;;21.95;52.93;98908.78;1748856;82;21617;-45
2022/08/01 04:54:29;;;;;;;6.20;2.62;;;;;;;22.01;52.72;98907.61;1749072;82;21041;-45
2022/08/01 04:57:02;;;;;;;6.25;2.50;;;;;;;22.06;52.57;98905.05;1749342;82;21238;-46
2022/08/01 04:59:40;;;;;;;5.33;2.83;;;;;;;22.14;52.11;98905.56;1748959;82;21483;-46
2022/08/01 05:02:16;;;;;;;6.33;2.67;;;;;;;22.20;51.67;98898.25;1749129;81;21077;-46
2022/08/01 05:04:43;;;;;;;6.42;2.90;;;;;;;22.24;51.77;98901.65;1748797;82;21016;-46
2022/08/01 05:07:11;;;;;;;4.40;2.50;;;;;;;22.31;51.84;98900.64;1749348;82;21566;-46
2022/08/01 05:09:46;;;;;;;8.85;2.95;;;;;;;22.37;51.71;98895.45;1749089;81;21219;-46
2022/08/01 05:12:12;;;;;;;5.25;2.20;;;;;;;22.44;51.62;98899.95;1749180;81;20922;-46
2022/08/01 05:14:39;;;;;;;4.05;2.45;;;;;;;22.50;51.16;98903.69;1749034;81;21005;-46
2022/08/01 05:17:09;;;;;;;7.72;2.60;;;;;;;22.54;50.97;98897.41;1748890;82;21640;-46
2022/08/01 05:19:37;;;;;;;7.70;2.62;;;;;;;22.61;50.97;98901.27;1749117;82;21041;-46
2022/08/01 05:22:06;;;;;;;5.83;2.40;;;;;;;22.66;50.23;98899.31;1741443;82;21115;-46
2022/08/01 05:24:38;;;;;;;7.30;2.60;;;;;;;22.70;50.41;98900.58;1735238;82;21041;-46
2022/08/01 05:27:07;;;;;;;10.53;2.42;;;;;;;22.76;49.80;98902.31;1734697;82;21065;-46
2022/08/01 05:29:34;;;;;;;5.70;2.52;;;;;;;22.79;49.69;98895.91;1735062;82;21005;-46
2022/08/01 05:32:01;;;;;;;4.00;2.15;;;;;;;22.84;49.40;98900.07;1735005;82;20977;-46
2022/08/01 05:34:29;;;;;;;4.80;2.55;;;;;;;22.87;49.30;98895.78;1735107;82;21188;-46
2022/08/01 05:36:56;;;;;;;4.83;2.70;;;;;;;22.92;48.95;98892.42;1735062;82;20989;-46
2022/08/01 05:39:23;;;;;;;8.05;2.35;;;;;;;22.97;48.29;98891.06;1735079;82;20973;-46
2022/08/01 05:41:50;;;;;;;4.47;2.52;;;;;;;23.02;48.18;98895.23;1735156;82;21610;-46
2022/08/01 05:44:17;;;;;;;7.47;2.80;;;;;;;23.04;47.97;98901.86;1735292;82;21018;-46
2022/08/01 05:46:46;;;;;;;4.22;2.10;;;;;;;23.08;47.96;98895.58;1735261;82;21242;-46
2022/08/01 05:49:13;;;;;;;4.40;2.35;;;;;;;23.14;48.09;98902.03;1735298;82;21069;-45
2022/08/01 05:51:40;;;;;;;6.40;2.17;;;;;;;23.19;47.95;98893.14;1735098;82;20989;-46
2022/08/01 05:54:07;;;;;;;4.70;2.47;;;;;;;23.26;47.64;98896.24;1735096;82;21516;-46
2022/08/01 05:56:34;;;;;;;3.60;2.37;;;;;;;23.31;47.53;98901.95;1734980;82;21092;-46
2022/08/01 05:59:01;;;;;;;3.98;2.25;;;;;;;23.39;47.31;98902.42;1735050;82;21139;-46
2022/08/01 06:01:28;;;;;;;4.42;2.20;;;;;;;23.46;47.24;98905.55;1734863;82;21534;-46
2022/08/01 06:03:55;;;;;;;5.35;2.60;;;;;;;23.51;47.19;98898.81;1734862;82;21005;-45
2022/08/01 06:06:22;;;;;;;4.33;2.42;;;;;;;23.60;47.32;98902.20;1735071;82;20993;-46
2022/08/01 06:08:50;;;;;;;7.50;2.25;;;;;;;23.66;47.04;98899.77;1734716;82;20989;-46
2022/08/01 06:11:17;;;;;;;6.75;2.55;;;;;;;23.72;47.02;98899.30;1735087;82;21246;-46
2022/08/01 06:13:44;;;;;;;5.60;2.40;;;;;;;23.76;46.74;98888.87;1735104;82;20938;-46
2022/08/01 06:16:11;;;;;;;2.72;2.12;;;;;;;23.81;46.80;98898.56;1735536;82;21614;-46
2022/08/01 06:18:38;;;;;;;4.05;2.47;;;;;;;23.85;46.63;98898.40;1735317;82;21078;-46
2022/08/01 06:21:05;;;;;;;7.70;2.65;;;;;;;23.87;46.62;98893.19;1735261;82;21092;-46
2022/08/01 06:23:32;;;;;;;8.18;2.67;;;;;;;23.91;46.66;98895.18;1740611;82;21215;-46
2022/08/01 06:25:59;;;;;;;4.37;2.10;;;;;;;23.96;46.66;98888.42;1740522;82;20957;-46
2022/08/01 06:28:27;;;;;;;5.60;2.22;;;;;;;24.00;46.87;98886.88;1740529;82;21011;-46
2022/08/01 06:30:55;;;;;;;5.37;2.25;;;;;;;24.06;46.28;98886.42;1740540;82;20897;-46
2022/08/01 06:33:23;;;;;;;5.47;2.45;;;;;;;24.13;46.36;98888.87;1740636;82;21048;-46
2022/08/01 06:35:50;;;;;;;5.95;2.30;;;;;;;24.20;46.27;98887.22;1740439;82;21924;-46
2022/08/01 06:38:18;;;;;;;6.83;2.25;;;;;;;24.29;45.94;98886.42;1740412;82;21001;-46
2022/08/01 06:40:45;;;;;;;3.40;2.00;;;;;;;24.38;45.98;98887.19;1740533;82;20976;-46
2022/08/01 06:43:12;;;;;;;3.90;2.10;;;;;;;24.47;45.70;98884.39;1740657;81;21478;-46
2022/08/01 06:45:40;;;;;;;4.67;2.20;;;;;;;24.57;45.22;98887.30;1740527;82;21122;-46
2022/08/01 06:48:07;;;;;;;6.70;2.30;;;;;;;24.66;44.88;98880.34;1740595;82;23101;-46
2022/08/01 06:50:35;;;;;;;5.65;2.17;;;;;;;24.76;44.63;98882.48;1740697;82;21526;-46
2022/08/01 06:53:03;;;;;;;4.87;2.20;;;;;;;24.85;44.25;98876.12;1740866;82;21036;-46
2022/08/01 06:55:30;;;;;;;5.25;2.15;;;;;;;24.92;43.82;98873.83;1740791;82;21482;-46
2022/08/01 06:57:57;;;;;;;4.10;2.30;;;;;;;24.98;43.69;98876.09;1740648;82;21015;-46
2022/08/01 07:00:25;;;;;;;3.98;2.10;;;;;;;25.05;43.39;98877.78;1740561;82;21239;-46
2022/08/01 07:02:55;;;;;;;3.70;2.17;;;;;;;25.12;43.19;98868.36;1740490;82;21044;-46
2022/08/01 07:05:22;;;;;;;4.80;2.35;;;;;;;25.21;43.34;98869.70;1740782;82;21007;-46
2022/08/01 07:07:51;;;;;;;5.30;2.52;;;;;;;25.34;43.03;98857.75;1740614;81;21684;-46
2022/08/01 07:10:18;;;;;;;5.95;1.75;;;;;;;25.45;42.69;98862.93;1740432;82;21005;-46
2022/08/01 07:12:45;;;;;;;3.67;2.40;;;;;;;25.59;42.50;98860.09;1740723;81;21238;-46
2022/08/01 07:15:12;;;;;;;4.67;2.05;;;;;;;25.73;42.50;98855.83;1740483;82;20935;-46
2022/08/01 07:17:40;;;;;;;4.62;2.10;;;;;;;25.84;41.98;98847.73;1740405;81;21027;-46
2022/08/01 07:20:11;;;;;;;4.97;2.20;;;;;;;25.97;41.81;98853.78;1740686;81;21040;-46
2022/08/01 07:22:38;;;;;;;4.42;2.52;;;;;;;26.09;41.39;98851.38;1737708;81;21077;-46
2022/08/01 07:25:07;;;;;;;5.40;2.08;;;;;;;26.21;41.05;98848.97;1735237;82;21637;-46
2022/08/01 07:27:35;;;;;;;3.90;2.10;;;;;;;26.34;40.89;98847.28;1735351;82;20982;-46
2022/08/01 07:30:03;;;;;;;5.83;2.05;;;;;;;26.47;40.32;98851.19;1735161;82;20938;-46
2022/08/01 07:32:31;;;;;;;6.72;2.20;;;;;;;26.59;40.56;98851.50;1735361;82;21018;-46
2022/08/01 07:37:11;;;;;;;4.30;2.50;;;;;;;26.86;39.97;98837.33;1773937;79;23322;-46
2022/08/01 07:39:38;;;;;;;4.40;2.25;;;;;;;26.91;39.54;98840.82;1746384;82;21521;-46
2022/08/01 07:42:05;;;;;;;5.55;2.62;;;;;;;27.03;39.72;98840.34;1746352;82;23130;-46
2022/08/01 07:44:32;;;;;;;5.53;2.42;;;;;;;27.12;39.38;98838.21;1746404;82;20939;-46
2022/08/01 07:46:59;;;;;;;6.30;2.20;;;;;;;27.17;38.97;98841.70;1746659;82;20990;-46
2022/08/01 07:49:26;;;;;;;3.58;2.12;;;;;;;27.21;39.19;98842.88;1746398;82;20979;-46
2022/08/01 07:51:54;;;;;;;4.20;2.42;;;;;;;27.21;38.88;98845.05;1746500;82;21014;-46
2022/08/01 07:54:23;;;;;;;4.75;2.45;;;;;;;27.21;38.83;98845.05;1746587;82;21201;-46
2022/08/01 07:56:50;;;;;;;10.78;2.70;;;;;;;27.19;38.98;98849.58;1746475;82;21536;-46
2022/08/01 07:59:22;;;;;;;4.55;2.15;;;;;;;27.15;39.55;98849.02;1746423;82;20963;-46
2022/08/01 08:01:46;;;;;;;6.28;2.27;;;;;;;27.14;39.52;98849.63;1745777;82;21000;-46
2022/08/01 08:04:14;;;;;;;6.15;2.20;;;;;;;27.17;39.44;98845.88;1746670;82;21078;-46
2022/08/01 08:06:41;;;;;;;4.05;2.33;;;;;;;27.24;39.69;98849.66;1746614;82;21255;-46
2022/08/01 08:09:08;;;;;;;6.20;2.40;;;;;;;27.34;39.41;98852.31;1746445;82;21566;-46
2022/08/01 08:11:34;;;;;;;5.37;2.37;;;;;;;27.45;39.30;98854.60;1746763;82;21521;-46
2022/08/01 08:14:01;;;;;;;6.62;2.27;;;;;;;27.59;38.81;98844.70;1746523;82;21018;-46
2022/08/01 08:16:28;;;;;;;7.15;2.60;;;;;;;27.70;38.74;98843.43;1746486;82;20999;-46
2022/08/01 08:18:55;;;;;;;4.42;2.25;;;;;;;27.85;38.84;98851.08;1746447;82;21241;-46
2022/08/01 08:21:22;;;;;;;4.58;2.47;;;;;;;28.01;37.95;98840.00;1746621;82;21553;-46
2022/08/01 08:26:34;;;;;;;3.95;2.40;;;;;;;28.34;36.66;98843.77;1746391;82;21018;-46
2022/08/01 08:29:00;;;;;;;3.85;2.30;;;;;;;28.48;36.89;98845.67;1746537;82;21053;-46
2022/08/01 08:31:27;;;;;;;5.53;2.55;;;;;;;28.64;36.39;98842.91;1746506;82;21311;-46
2022/08/01 08:33:54;;;;;;;5.58;2.62;;;;;;;28.76;35.98;98841.75;1746529;82;21482;-46
2022/08/01 08:36:21;;;;;;;3.22;2.35;;;;;;;28.88;35.85;98843.37;1749180;81;20958;-46
2022/08/01 08:38:48;;;;;;;8.35;2.55;;;;;;;28.95;35.88;98835.30;1752062;81;21466;-46
2022/08/01 08:41:15;;;;;;;7.62;2.67;;;;;;;29.04;35.05;98829.41;1752011;81;21031;-46
2022/08/01 08:43:42;;;;;;;8.20;2.40;;;;;;;29.09;35.24;98820.30;1752243;81;21221;-46
2022/08/01 08:46:09;;;;;;;5.55;2.72;;;;;;;29.18;35.18;98818.70;1752277;81;21602;-46
2022/08/01 08:48:39;;;;;;;9.60;3.27;;;;;;;29.26;35.01;98816.33;1751705;82;21109;-46
2022/08/01 08:51:08;;;;;;;5.62;2.80;;;;;;;29.34;34.83;98814.62;1751623;82;20987;-46
2022/08/01 08:53:36;;;;;;;8.60;3.20;;;;;;;29.41;35.16;98821.00;1751496;82;21445;-46
2022/08/01 08:56:03;;;;;;;4.78;2.67;;;;;;;29.50;34.76;98822.19;1751425;82;21216;-46
2022/08/01 08:58:37;;;;;;;6.70;2.67;;;;;;;29.59;35.02;98818.54;1751715;82;21289;-46
2022/08/01 09:01:00;;;;;;;6.07;2.57;;;;;;;29.72;35.15;98813.28;1751115;82;21504;-46
2022/08/01 09:03:27;;;;;;;5.85;2.75;;;;;;;29.88;34.54;98811.01;1751401;81;21094;-46
2022/08/01 09:05:54;;;;;;;4.72;2.47;;;;;;;30.01;34.52;98811.34;1751479;82;21047;-46
2022/08/01 09:08:21;;;;;;;5.10;2.77;;;;;;;30.12;34.39;98813.52;1751422;82;21148;-46
2022/08/01 09:10:48;;;;;;;6.50;2.75;;;;;;;30.24;34.15;98810.11;1751193;82;21490;-46
2022/08/01 09:13:15;;;;;;;4.42;2.77;;;;;;;30.36;34.13;98805.27;1751646;82;21638;-46
2022/08/01 09:15:49;;;;;;;9.13;2.90;;;;;;;30.48;34.00;98809.01;1751380;81;21022;-46
2022/08/01 09:18:40;;;;;;;6.30;3.00;;;;;;;30.57;33.52;98810.15;1751600;82;21035;-46
2022/08/01 09:21:14;;;;;;;5.37;2.65;;;;;;;30.67;33.74;98811.29;1751339;82;23123;-46
2022/08/01 09:23:48;;;;;;;5.78;2.60;;;;;;;30.79;33.97;98807.22;1751513;82;21837;-46
2022/08/01 09:26:17;;;;;;;6.28;2.92;;;;;;;30.92;33.30;98813.05;1750807;82;21023;-46
2022/08/01 09:28:45;;;;;;;8.03;2.92;;;;;;;31.04;33.26;98820.17;1751801;82;20987;-46
2022/08/01 09:31:17;;;;;;;4.78;2.77;;;;;;;31.16;33.00;98816.72;1751581;82;21046;-46
2022/08/01 09:33:57;;;;;;;4.83;2.77;;;;;;;31.23;33.14;98812.73;1751737;82;22027;-46
2022/08/01 09:36:27;;;;;;;6.97;2.35;;;;;;;31.31;32.68;98812.98;1750140;82;20931;-46
2022/08/01 09:38:54;;;;;;;4.80;2.72;;;;;;;31.36;32.97;98812.97;1721924;82;20990;-46
2022/08/01 09:41:31;;;;;;;7.58;2.60;;;;;;;31.44;32.47;98820.19;1751435;81;20982;-46
2022/08/01 09:43:59;;;;;;;4.87;2.60;;;;;;;31.48;32.62;98813.67;1751629;82;21019;-46
2022/08/01 09:46:26;;;;;;;3.40;2.47;;;;;;;31.54;32.33;98814.42;1751527;82;21289;-46
2022/08/01 09:49:01;;;;;;;7.08;2.75;;;;;;;31.64;32.42;98807.91;1746370;81;21035;-46
2022/08/01 09:51:35;;;;;;;6.45;2.80;;;;;;;31.72;32.53;98814.49;1751768;82;20955;-46
2022/08/01 09:54:05;;;;;;;3.47;2.72;;;;;;;31.78;32.56;98817.41;1751358;82;21489;-46
2022/08/01 09:56:41;;;;;;;3.98;2.80;;;;;;;31.88;32.09;98810.85;1751627;82;21018;-46
2022/08/01 09:59:09;;;;;;;4.70;2.30;;;;;;;31.97;31.98;98816.78;1751446;81;21214;-46
2022/08/01 10:01:49;;;;;;;3.15;2.70;;;;;;;32.04;31.44;98811.41;1751368;81;21003;-46
2022/08/01 10:04:19;;;;;;;3.10;2.45;;;;;;;32.07;31.23;98815.96;1751496;82;20986;-46
2022/08/01 10:06:52;;;;;;;5.03;2.80;;;;;;;32.11;31.27;98817.88;1751791;81;21025;-46
2022/08/01 10:09:30;;;;;;;8.70;2.92;;;;;;;32.17;31.10;98813.00;1751521;81;21074;-46
2022/08/01 10:11:59;;;;;;;4.72;2.70;;;;;;;32.23;30.92;98815.77;1774994;80;21661;-46
2022/08/01 10:14:28;;;;;;;4.37;2.80;;;;;;;32.30;31.37;98813.15;1782499;80;20929;-46
2022/08/01 10:16:57;;;;;;;9.40;2.90;;;;;;;32.40;31.05;98807.98;1782972;80;20968;-46
2022/08/01 10:19:27;;;;;;;6.15;3.17;;;;;;;32.47;30.88;98812.27;1782523;80;20910;-46
2022/08/01 10:21:55;;;;;;;7.05;2.90;;;;;;;32.55;31.06;98806.97;1782379;80;21020;-46
2022/08/01 10:24:22;;;;;;;4.30;3.10;;;;;;;32.71;30.80;98817.96;1782286;80;21614;-46
2022/08/01 10:26:52;;;;;;;5.90;3.10;;;;;;;32.78;30.63;98809.72;1782191;80;21092;-46
2022/08/01 10:29:20;;;;;;;6.30;3.05;;;;;;;32.85;30.98;98813.23;1782276;80;21527;-46
2022/08/01 10:31:47;;;;;;;9.90;3.20;;;;;;;32.93;30.73;98809.96;1782469;80;21076;-47
2022/08/01 10:34:18;;;;;;;7.28;3.30;;;;;;;33.06;30.49;98808.06;1782271;80;20993;-46
2022/08/01 10:36:46;;;;;;;8.15;3.55;;;;;;;33.17;30.46;98800.92;1778344;80;21135;-46
2022/08/01 10:39:13;;;;;;;4.22;3.05;;;;;;;33.29;30.18;98802.21;1774121;80;21008;-46
2022/08/01 10:41:40;;;;;;;5.30;3.22;;;;;;;33.38;30.12;98806.06;1774113;80;21013;-46
2022/08/01 10:44:10;;;;;;;5.83;3.17;;;;;;;33.50;30.09;98796.22;1774539;80;21001;-46
2022/08/01 10:46:44;;;;;;;8.48;3.58;;;;;;;33.69;30.32;98803.29;1774133;80;21096;-46
2022/08/01 10:49:14;;;;;;;8.28;2.98;;;;;;;33.86;30.40;98806.63;1774401;80;21706;-46
2022/08/01 10:51:40;;;;;;;;;;;;;;;34.04;29.65;98808.02;1776578;80;20930;-46
2022/08/01 10:54:10;;;;;;;5.90;3.30;;;;;;;34.13;29.33;98804.72;1774201;80;20132;-46
2022/08/01 10:56:46;;;;;;;5.62;2.75;;;;;;;34.15;29.54;98798.66;1773988;80;21016;-46
2022/08/01 10:59:27;;;;;;;5.12;3.25;;;;;;;34.33;29.62;98791.48;1774523;80;21045;-46
2022/08/01 11:02:04;;;;;;;4.97;2.92;;;;;;;34.52;28.94;98793.61;1774355;80;21129;-46
2022/08/01 11:04:42;;;;;;;6.25;3.20;;;;;;;34.62;29.03;98794.71;1774515;80;21085;-46
2022/08/01 11:07:17;;;;;;;6.75;3.60;;;;;;;34.81;28.92;98791.20;1774224;80;20957;-46
2022/08/01 11:09:47;;;;;;;6.80;3.40;;;;;;;35.03;28.55;98788.64;1774163;80;21539;-46
2022/08/01 11:12:16;;;;;;;5.92;3.00;;;;;;;35.23;27.63;98785.85;1752205;80;21045;-46
2022/08/01 11:15:05;;;;;;;8.33;2.85;;;;;;;35.28;27.67;98784.34;1774429;80;21785;-46
2022/08/01 11:17:39;;;;;;;4.62;2.85;;;;;;;35.38;27.82;98783.89;1773977;80;20969;-47
2022/08/01 11:20:13;;;;;;;6.53;3.12;;;;;;;35.47;27.56;98788.44;1774365;80;20895;-46
2022/08/01 11:23:05;;;;;;;4.35;3.02;;;;;;;35.54;27.71;98783.53;1773856;80;21342;-47
2022/08/01 11:25:46;;;;;;;4.47;3.10;;;;;;;35.69;27.99;98781.58;1774109;80;21088;-46
2022/08/01 11:28:25;;;;;;;7.28;3.25;;;;;;;35.93;28.04;98785.52;1774215;80;21298;-46
2022/08/01 11:31:16;;;;;;;4.33;2.77;;;;;;;36.21;27.64;98770.81;1773903;80;20925;-46
2022/08/01 11:33:48;;;;;;;4.95;3.25;;;;;;;36.56;27.15;98783.52;1774033;80;21554;-46
2022/08/01 11:36:20;;;;;;;4.12;2.90;;;;;;;36.83;26.96;98774.27;1774066;80;21293;-47
2022/08/01 11:39:06;;;;;;;6.58;3.12;;;;;;;37.07;26.23;98775.30;1774061;80;21025;-46
2022/08/01 11:41:35;;;;;;;3.90;2.80;;;;;;;37.25;26.38;98777.75;1774249;80;21226;-47
2022/08/01 11:44:19;;;;;;;4.70;3.08;;;;;;;37.41;25.77;98778.70;1774441;80;20949;-46
2022/08/01 11:47:02;;;;;;;4.25;2.77;;;;;;;37.30;25.86;98777.59;1774274;80;20981;-46
2022/08/01 11:49:40;;;;;;;4.05;2.77;;;;;;;36.87;26.59;98783.90;1774431;80;21037;-46
2022/08/01 11:52:27;;;;;;;5.85;3.70;;;;;;;36.44;27.42;98785.89;1774366;80;20990;-46